Anahola, Hawaii
Current Conditions -  °F | °C
As of 3:53 AM on Thursday 30 Oct 2014 (Local Time) from PHLI Reporting Station
Broken Clouds Broken Clouds  
Wind Chill: 25°   Ceiling: 7500
Heat Index: 26°   Visibility: 10mi
Dew Point: 21°   Wind: 16mph
Humidity: 79%   Direction: 60°ENE
Pressure: 30.08"   Gusts: NA
Location:  22.14°N, 159.31°W
Report Text: PHLI 301353Z 06014KT 10SM SCT018 BKN075 25/21 A3008 RMK AO2 RAB00E09 SLP183 P0001 T02500211 $
Loading
Personal Weather Stations






























Interactive Weather Map
Tropical Storm Tracking
New forecast layout! Learn more

10-Day Weather Forecast

Advertisements
Track Severe Weather on mobile